LFYR

Details ICAO LFYR
Name Romorantin Prunier
Region France
Timezone Europe/Paris (UTC+1.0)
Plans Departing 1
Arriving 4
Stats Elevation 289 ft / 88 m (AMSL)
Location 47.321572° 1.688847°
Runways 3
Magnetic Variation 0.487° E
Sunrise 2017-12-17 07:36:26 UTC / 2017-12-17 08:36:26 Local
Sunset 2017-12-17 16:05:01 UTC / 2017-12-17 17:05:01 Local
Advertisement - Login to hide

Runways

ID Width Length Bearing (true) Bearing (mag) Surface Threshold Offset Overrun Length
05 33 ft / 10 m 1,708 ft / 520 m 46.00° 45.51° Asphalt 0 ft / 0 m 0 ft / 0 m
05L 328 ft / 100 m 2,626 ft / 801 m 46.00° 45.51° Grass 0 ft / 0 m 0 ft / 0 m
05R 328 ft / 100 m 3,119 ft / 951 m 46.00° 45.51° Grass 0 ft / 0 m 0 ft / 0 m
23 33 ft / 10 m 1,708 ft / 520 m 226.00° 225.51° Asphalt 0 ft / 0 m 0 ft / 0 m
23L 328 ft / 100 m 3,119 ft / 951 m 226.00° 225.51° Grass 0 ft / 0 m 0 ft / 0 m
23R 328 ft / 100 m 2,626 ft / 801 m 226.00° 225.51° Grass 0 ft / 0 m 0 ft / 0 m

Map

Weather


0- 5 10 15 20 25 30 35+ Temperature / ° C

Clouds and Precipitation
Forecast for 2017-12-17 18:00 UTC. Updated 37 minutes ago

Ground ~20,000 ft ~40,000 ft Winds

METAR

LFYR 171530Z AUTO 27004KT 240V300 9999 OVC005 04/02 Q1029

TAF

Not found
Warning: Do not use this data for real-world aviation or navigation. No guarantee of current accuracy is given.